Time;durP1;ratioP1;P1;durP2;ratioP2;P2;SDS_P1;SDS_P2;PMS_P1;PMS_P2;Temp;Humidity;BMP_temperature;BMP_pressure;BME280_temperature;BME280_humidity;BME280_pressure;Samples;Min_cycle;Max_cycle;Signal;HPM_P1;HPM_P2
2022/10/23 00:00:08;;;;;;;2.08;0.70;;;;;;;18.88;67.57;96671.47;10563538;28;20027;-29
2022/10/23 00:05:08;;;;;;;1.15;0.70;;;;;;;18.88;68.33;96667.25;10555867;28;20027;-30
2022/10/23 00:10:09;;;;;;;5.18;0.95;;;;;;;18.88;68.70;96661.34;10563232;28;20055;-30
2022/10/23 00:15:10;;;;;;;3.40;1.42;;;;;;;18.86;68.78;96641.06;10556591;28;20039;-31
2022/10/23 00:20:12;;;;;;;3.05;1.58;;;;;;;18.87;68.77;96655.44;10558137;28;20039;-30
2022/10/23 00:25:12;;;;;;;2.05;0.65;;;;;;;18.87;68.93;96644.44;10567151;28;20031;-31
2022/10/23 00:30:13;;;;;;;2.43;0.87;;;;;;;18.83;67.35;96632.63;10562153;28;20035;-30
2022/10/23 00:35:13;;;;;;;1.60;0.70;;;;;;;18.90;68.61;96634.25;10542475;28;20289;-29
2022/10/23 00:40:14;;;;;;;1.95;1.02;;;;;;;18.95;69.58;96632.56;10565344;28;20024;-31
2022/10/23 00:45:17;;;;;;;1.50;0.70;;;;;;;18.95;68.23;96637.63;10562531;28;20053;-30
2022/10/23 00:50:22;;;;;;;1.35;0.60;;;;;;;18.91;68.13;96625.84;10546741;28;20118;-30
2022/10/23 00:55:24;;;;;;;3.42;1.00;;;;;;;18.87;68.13;96634.28;10562335;28;20031;-30
2022/10/23 01:00:29;;;;;;;3.40;0.70;;;;;;;18.88;68.41;96630.91;10553058;28;20028;-30
2022/10/23 01:05:40;;;;;;;1.15;0.80;;;;;;;18.88;68.56;96620.75;10558337;28;20103;-30
2022/10/23 01:10:55;;;;;;;7.20;1.33;;;;;;;18.87;68.66;96619.06;10541894;28;20032;-29
2022/10/23 01:15:55;;;;;;;2.45;0.77;;;;;;;18.87;68.68;96619.06;10560227;28;20059;-29
2022/10/23 01:21:04;;;;;;;1.60;0.85;;;;;;;18.87;68.83;96619.06;10556950;28;20059;-30
2022/10/23 01:26:33;;;;;;;2.80;1.40;;;;;;;18.87;68.64;96616.53;10545184;28;20553;-30
2022/10/23 01:31:42;;;;;;;1.83;0.60;;;;;;;18.88;69.01;96610.59;10559019;28;20036;-29
2022/10/23 01:36:47;;;;;;;1.95;0.80;;;;;;;18.95;68.67;96607.19;10543399;28;20115;-29
2022/10/23 01:41:54;;;;;;;3.60;0.80;;;;;;;18.95;68.27;96599.59;10541906;28;20382;-29
2022/10/23 01:47:02;;;;;;;1.75;1.08;;;;;;;18.92;68.08;96597.06;10539448;28;20100;-29
2022/10/23 01:52:10;;;;;;;1.23;1.00;;;;;;;18.88;67.83;96586.09;10537629;28;20023;-29
2022/10/23 01:57:18;;;;;;;2.05;0.70;;;;;;;18.87;68.25;96575.94;10543029;28;20157;-30
2022/10/23 02:02:21;;;;;;;2.75;0.93;;;;;;;18.71;68.11;96562.47;10541620;28;20046;-30
2022/10/23 02:07:22;;;;;;;2.53;0.80;;;;;;;18.82;68.26;96567.53;10534375;28;20031;-29
2022/10/23 02:12:22;;;;;;;1.35;0.80;;;;;;;18.85;68.76;96558.19;10564259;28;20031;-29
2022/10/23 02:17:39;;;;;;;2.63;0.60;;;;;;;18.86;68.64;96556.50;10545120;28;20039;-30
2022/10/23 02:22:51;;;;;;;2.38;0.85;;;;;;;18.85;68.68;96555.66;10537758;28;20027;-30
2022/10/23 02:27:56;;;;;;;1.58;0.68;;;;;;;18.83;68.29;96543.84;10553789;28;20036;-30
2022/10/23 02:33:04;;;;;;;1.25;0.52;;;;;;;18.89;69.05;96551.41;10542912;28;20114;-30
2022/10/23 02:38:39;;;;;;;3.30;0.70;;;;;;;18.97;69.53;96555.59;10563149;28;20039;-29
2022/10/23 02:43:54;;;;;;;0.90;0.70;;;;;;;18.92;68.20;96547.16;10542526;28;20232;-29
2022/10/23 02:49:13;;;;;;;3.55;0.60;;;;;;;18.88;68.12;96542.13;10559959;28;20032;-30
2022/10/23 02:54:39;;;;;;;1.90;0.55;;;;;;;18.87;68.38;96532.81;10546961;28;20683;-30
2022/10/23 02:59:46;;;;;;;1.33;0.75;;;;;;;18.81;68.31;96522.69;10571983;28;20035;-29
2022/10/23 03:04:48;;;;;;;2.22;0.90;;;;;;;18.83;68.54;96524.38;10549893;28;20032;-28
2022/10/23 03:09:48;;;;;;;2.20;0.60;;;;;;;18.84;68.25;96517.63;10548509;28;20035;-29
2022/10/23 03:14:49;;;;;;;0.63;0.50;;;;;;;18.85;68.15;96504.09;10538826;28;20046;-30
2022/10/23 03:19:50;;;;;;;1.70;0.63;;;;;;;18.84;68.37;96510.03;10546028;28;20421;-30
2022/10/23 03:24:50;;;;;;;0.85;0.47;;;;;;;18.84;68.49;96518.44;10544025;28;20510;-30
2022/10/23 03:29:50;;;;;;;0.98;0.50;;;;;;;18.87;68.89;96502.38;10544234;28;20515;-30
2022/10/23 03:34:52;;;;;;;2.67;0.73;;;;;;;18.94;69.29;96512.50;10544445;28;20445;-30
2022/10/23 03:39:52;;;;;;;1.13;0.90;;;;;;;18.91;68.13;96501.53;10567306;28;20028;-31
2022/10/23 03:44:53;;;;;;;2.20;0.70;;;;;;;18.88;68.02;96499.00;10556928;28;20027;-28
2022/10/23 03:49:53;;;;;;;0.93;0.53;;;;;;;18.84;67.90;96507.47;10544652;28;20085;-29
2022/10/23 03:54:53;;;;;;;2.57;0.93;;;;;;;18.83;68.09;96488.03;10546850;28;20035;-29
2022/10/23 03:59:54;;;;;;;1.67;1.07;;;;;;;18.84;67.97;96487.19;10542594;28;20057;-30
2022/10/23 04:04:54;;;;;;;1.75;0.80;;;;;;;18.83;68.49;96496.47;10561495;28;20465;-30
2022/10/23 04:09:55;;;;;;;1.17;0.60;;;;;;;18.84;68.58;96489.72;10544314;28;20035;-29
2022/10/23 04:14:56;;;;;;;0.93;0.68;;;;;;;18.84;68.45;96493.09;10562025;28;20040;-30
2022/10/23 04:19:56;;;;;;;1.33;0.70;;;;;;;18.78;68.43;96482.13;10544554;28;20383;-30
2022/10/23 04:24:56;;;;;;;2.20;0.60;;;;;;;18.79;68.74;96481.28;10570390;28;20290;-30
2022/10/23 04:29:57;;;;;;;2.97;0.73;;;;;;;18.88;68.63;96484.63;10559582;28;20097;-30
2022/10/23 04:34:57;;;;;;;2.50;0.80;;;;;;;18.93;68.79;96492.22;10540862;28;20290;-31
2022/10/23 04:39:58;;;;;;;1.88;0.50;;;;;;;18.90;68.17;96494.75;10546160;28;20382;-29
2022/10/23 04:44:58;;;;;;;2.10;1.07;;;;;;;18.86;67.91;96491.41;10540936;28;20036;-29
2022/10/23 04:49:59;;;;;;;2.50;0.57;;;;;;;18.84;67.49;96493.09;10540898;28;20067;-30
2022/10/23 04:55:17;;;;;;;2.47;0.60;;;;;;;18.83;67.93;96486.34;10559824;28;20286;-29
2022/10/23 05:00:25;;;;;;;0.95;0.40;;;;;;;18.83;67.35;96486.34;10542035;28;20743;-29
2022/10/23 05:05:28;;;;;;;6.18;0.77;;;;;;;18.83;68.67;96476.19;10518073;28;20023;-29
2022/10/23 05:10:49;;;;;;;2.08;0.70;;;;;;;18.86;68.53;96486.34;10506674;28;20074;-32
2022/10/23 05:15:50;;;;;;;0.98;0.63;;;;;;;18.87;68.83;96479.56;10550252;28;20043;-30
2022/10/23 05:20:58;;;;;;;2.10;0.82;;;;;;;18.85;68.46;96473.66;10560144;28;20529;-29
2022/10/23 05:25:58;;;;;;;;;;;;;;;18.85;68.76;96471.94;10560068;28;20036;-30
2022/10/23 05:31:01;;;;;;;0.95;0.50;;;;;;;18.86;69.04;96460.13;10558932;28;19916;-28
2022/10/23 05:36:03;;;;;;;0.80;0.50;;;;;;;18.94;68.80;96481.22;10534897;28;20032;-28
2022/10/23 05:41:04;;;;;;;1.13;0.73;;;;;;;18.91;67.94;96473.63;10543678;28;20036;-29
2022/10/23 05:46:05;;;;;;;1.67;0.55;;;;;;;18.87;67.40;96465.19;10558290;28;20020;-29
2022/10/23 05:51:08;;;;;;;2.42;0.50;;;;;;;18.86;67.82;96470.25;10562194;28;20118;-29
2022/10/23 05:56:27;;;;;;;1.42;0.82;;;;;;;18.83;67.86;96466.03;10541094;28;20405;-30
2022/10/23 06:01:35;;;;;;;0.60;0.50;;;;;;;18.84;67.89;96477.03;10534892;28;20023;-29
2022/10/23 06:06:39;;;;;;;3.63;1.08;;;;;;;18.85;68.14;96455.91;10539848;28;20296;-30
2022/10/23 06:11:40;;;;;;;1.80;0.60;;;;;;;18.84;68.35;96451.69;10533153;28;20072;-30
2022/10/23 06:16:46;;;;;;;1.95;0.52;;;;;;;18.84;68.69;96446.59;10552077;28;20047;-29
2022/10/23 06:21:47;;;;;;;2.15;0.60;;;;;;;18.83;68.32;96453.34;10551468;28;20110;-30
2022/10/23 06:26:48;;;;;;;1.23;0.50;;;;;;;18.83;68.69;96450.00;10567441;28;20027;-32
2022/10/23 06:31:55;;;;;;;1.08;0.70;;;;;;;18.89;67.24;96449.94;10539809;27;20035;-29
2022/10/23 06:36:56;;;;;;;2.60;0.50;;;;;;;18.90;66.91;96446.53;10550580;28;20411;-31
2022/10/23 06:42:18;;;;;;;0.82;0.57;;;;;;;18.84;67.23;96449.13;10549928;28;20028;-29
2022/10/23 06:47:38;;;;;;;0.85;0.60;;;;;;;18.81;66.86;96444.94;10562780;28;20506;-30
2022/10/23 06:53:03;;;;;;;1.30;0.57;;;;;;;18.71;63.93;96450.03;10552500;28;20621;-30
2022/10/23 06:58:09;;;;;;;0.93;0.50;;;;;;;18.62;64.81;96456.03;10547785;28;20084;-31
2022/10/23 07:03:10;;;;;;;3.20;0.60;;;;;;;18.62;64.78;96452.63;10548166;28;20035;-30
2022/10/23 07:08:10;;;;;;;2.87;0.60;;;;;;;18.54;64.51;96454.34;10542913;28;20026;-30
2022/10/23 07:13:15;;;;;;;1.10;0.55;;;;;;;18.52;64.91;96439.19;10549836;28;20314;-31
2022/10/23 07:18:31;;;;;;;0.73;0.50;;;;;;;18.48;63.94;96446.78;10564288;28;20043;-30
2022/10/23 07:23:50;;;;;;;1.25;0.30;;;;;;;18.59;64.10;96447.59;10558084;28;20044;-30
2022/10/23 07:28:53;;;;;;;5.40;0.60;;;;;;;18.61;64.42;96434.06;10543960;28;20028;-30
2022/10/23 07:33:55;;;;;;;5.55;0.60;;;;;;;18.80;64.67;96439.84;10545549;28;20445;-31
2022/10/23 07:38:55;;;;;;;2.50;0.40;;;;;;;18.68;64.75;96434.84;10553034;28;20039;-31
2022/10/23 07:43:56;;;;;;;2.28;0.90;;;;;;;18.64;64.27;96445.84;10543915;28;20055;-30
2022/10/23 07:48:56;;;;;;;2.58;0.60;;;;;;;18.53;62.92;96443.38;10541495;27;20490;-30
2022/10/23 07:53:57;;;;;;;2.63;0.40;;;;;;;18.50;62.68;96429.88;10561493;28;20051;-29
2022/10/23 07:59:29;;;;;;;2.75;0.73;;;;;;;18.53;62.17;96440.00;10553935;28;20374;-30
2022/10/23 08:04:34;;;;;;;7.75;0.50;;;;;;;18.49;61.71;96443.41;10541200;28;20544;-29
2022/10/23 08:09:43;;;;;;;10.77;1.55;;;;;;;18.54;61.99;96441.69;10552313;28;20055;-30
2022/10/23 08:14:44;;;;;;;1.00;0.60;;;;;;;18.64;63.63;96435.72;10546731;28;20024;-30
2022/10/23 08:19:47;;;;;;;0.63;0.40;;;;;;;18.68;64.09;96433.16;10541192;28;20293;-29
2022/10/23 08:24:48;;;;;;;2.00;0.65;;;;;;;18.68;64.46;96430.63;10538066;28;20497;-30
2022/10/23 08:29:48;;;;;;;2.03;0.40;;;;;;;18.70;62.84;96426.41;10564378;28;20040;-30
2022/10/23 08:34:48;;;;;;;1.83;0.40;;;;;;;18.80;63.60;96427.16;10542327;28;20660;-30
2022/10/23 08:39:50;;;;;;;5.80;0.45;;;;;;;18.82;63.96;96418.72;10540518;28;20059;-29
2022/10/23 08:45:06;;;;;;;5.28;1.35;;;;;;;18.78;64.48;96400.97;10544260;28;20521;-29
2022/10/23 08:50:24;;;;;;;3.13;1.05;;;;;;;18.78;64.87;96395.91;10537051;28;20453;-29
2022/10/23 08:55:44;;;;;;;6.40;2.25;;;;;;;18.79;64.96;96405.19;10562119;28;20092;-30
2022/10/23 09:00:46;;;;;;;14.57;1.63;;;;;;;18.70;65.40;96397.66;10543901;28;20032;-29
2022/10/23 09:05:53;;;;;;;4.97;1.63;;;;;;;18.75;65.37;96388.34;10555824;28;20055;-31
2022/10/23 09:10:56;;;;;;;7.60;1.27;;;;;;;18.75;65.04;96403.53;10550452;28;20027;-29
2022/10/23 09:16:14;;;;;;;4.88;2.67;;;;;;;18.76;65.29;96392.56;10556126;28;20050;-29
2022/10/23 09:21:15;;;;;;;6.18;1.20;;;;;;;18.70;65.29;96385.81;10555148;28;20059;-30
2022/10/23 09:26:17;;;;;;;13.90;2.10;;;;;;;18.70;65.28;96377.38;10563103;28;20486;-30
2022/10/23 09:31:18;;;;;;;16.38;1.95;;;;;;;18.81;65.72;96370.50;10549663;28;20533;-29
2022/10/23 09:36:22;;;;;;;20.48;3.00;;;;;;;18.82;66.24;96373.06;10563318;28;20030;-30
2022/10/23 09:41:30;;;;;;;11.35;1.70;;;;;;;18.88;66.02;96362.03;10563391;28;20032;-30
2022/10/23 09:46:38;;;;;;;10.48;1.20;;;;;;;18.85;65.36;96357.81;10559695;28;20036;-30
2022/10/23 09:51:51;;;;;;;7.50;1.50;;;;;;;18.82;65.46;96357.00;10558849;28;20027;-29
2022/10/23 09:56:53;;;;;;;12.63;1.55;;;;;;;18.80;65.58;96353.63;10559545;28;20035;-31
2022/10/23 10:01:59;;;;;;;8.20;1.80;;;;;;;18.78;65.72;96350.25;10552003;28;20038;-30
2022/10/23 10:07:28;;;;;;;5.20;1.40;;;;;;;18.80;65.65;96357.00;10551663;28;20039;-31
2022/10/23 10:12:36;;;;;;;7.70;1.83;;;;;;;18.74;65.40;96346.06;10556526;28;20027;-31
2022/10/23 10:17:46;;;;;;;8.90;1.50;;;;;;;18.81;65.37;96360.38;10559659;28;20032;-30
2022/10/23 10:23:03;;;;;;;3.78;1.30;;;;;;;18.76;65.40;96362.94;10554035;28;20019;-29
2022/10/23 10:28:41;;;;;;;5.18;1.38;;;;;;;18.80;65.79;96358.69;10560970;28;20031;-29
2022/10/23 10:33:41;;;;;;;6.30;1.73;;;;;;;18.83;66.58;96361.22;10554787;28;20035;-30
2022/10/23 10:38:51;;;;;;;3.43;1.17;;;;;;;18.88;66.67;96367.09;10562798;28;20032;-30
2022/10/23 10:44:17;;;;;;;7.15;2.03;;;;;;;18.89;66.34;96354.41;10558029;28;20027;-30
2022/10/23 10:49:41;;;;;;;4.07;1.20;;;;;;;18.83;65.46;96354.44;10557878;28;20107;-30
2022/10/23 10:55:14;;;;;;;5.28;1.35;;;;;;;18.80;65.68;96343.47;10541769;28;20039;-30
2022/10/23 11:00:20;;;;;;;4.30;1.38;;;;;;;18.81;65.98;96350.22;10563377;28;20028;-29
2022/10/23 11:05:30;;;;;;;5.13;1.40;;;;;;;18.82;65.64;96341.78;10555095;28;20444;-30
2022/10/23 11:10:32;;;;;;;2.90;1.20;;;;;;;18.81;65.43;96335.88;10559162;28;20047;-30
2022/10/23 11:15:42;;;;;;;4.50;1.45;;;;;;;18.78;65.00;96324.91;10566658;28;20132;-30
2022/10/23 11:21:06;;;;;;;1.55;0.60;;;;;;;18.71;65.20;96319.03;10566473;28;20038;-30
2022/10/23 11:26:41;;;;;;;2.58;1.17;;;;;;;18.73;65.18;96316.47;10567218;28;20030;-30
2022/10/23 11:32:29;;;;;;;4.80;1.00;;;;;;;18.77;66.68;96303.75;10540809;28;20044;-30
2022/10/23 11:37:30;;;;;;;3.08;1.55;;;;;;;18.83;66.79;96291.03;10507027;28;20046;-30
2022/10/23 11:42:44;;;;;;;2.55;1.02;;;;;;;18.88;66.78;96285.91;10563452;28;20406;-30
2022/10/23 11:48:00;;;;;;;2.17;1.00;;;;;;;18.88;65.99;96270.69;10560993;28;20117;-30
2022/10/23 11:53:06;;;;;;;;;;;;;;;18.78;65.28;96252.22;10560560;28;20042;-31
2022/10/23 11:58:16;;;;;;;4.43;0.98;;;;;;;18.80;65.19;96257.25;10568777;28;19941;-30
2022/10/23 12:03:23;;;;;;;4.30;1.90;;;;;;;18.72;65.23;96239.56;10565251;28;20027;-30
2022/10/23 12:08:27;;;;;;;2.55;1.80;;;;;;;18.78;65.28;96248.81;10559402;28;20097;-29
2022/10/23 12:13:29;;;;;;;5.93;2.72;;;;;;;18.78;65.16;96243.75;10564179;28;20038;-30
2022/10/23 12:18:30;;;;;;;5.88;3.40;;;;;;;18.73;65.11;96226.03;10565659;28;20027;-29
2022/10/23 12:24:10;;;;;;;6.75;3.30;;;;;;;18.79;65.09;96240.34;10563165;28;20091;-37
2022/10/23 12:29:18;;;;;;;3.00;2.05;;;;;;;18.77;65.21;96239.53;10559570;28;20432;-30
2022/10/23 12:34:45;;;;;;;3.80;1.58;;;;;;;18.83;66.71;96231.88;10559264;28;20028;-29
2022/10/23 12:39:54;;;;;;;2.03;1.15;;;;;;;18.89;67.06;96219.13;10557619;28;20055;-30
2022/10/23 12:45:17;;;;;;;2.85;1.33;;;;;;;18.92;66.76;96204.72;10554679;28;20031;-30
2022/10/23 12:50:22;;;;;;;3.10;1.35;;;;;;;18.82;65.75;96198.06;10559480;28;20027;-29
2022/10/23 12:55:25;;;;;;;1.77;1.10;;;;;;;18.85;65.70;96199.72;10560689;28;20032;-30
2022/10/23 13:00:25;;;;;;;3.33;1.20;;;;;;;18.83;65.42;96207.34;10558686;28;20048;-29
2022/10/23 13:05:28;;;;;;;2.97;1.17;;;;;;;18.76;65.14;96179.53;10538052;28;20485;-30
2022/10/23 13:10:29;;;;;;;2.22;1.40;;;;;;;18.81;65.16;96187.91;10564551;28;20066;-30
2022/10/23 13:15:41;;;;;;;2.28;1.33;;;;;;;18.80;64.95;96179.47;10544265;28;20027;-30
2022/10/23 13:21:01;;;;;;;3.03;1.45;;;;;;;18.74;65.71;96178.72;10559931;28;20039;-29
2022/10/23 13:26:05;;;;;;;23.13;2.50;;;;;;;18.79;66.03;96184.56;10563590;28;20594;-29
2022/10/23 13:31:21;;;;;;;7.25;1.70;;;;;;;18.76;65.62;96164.31;10560742;28;20035;-29
2022/10/23 13:36:23;;;;;;;5.93;1.50;;;;;;;18.86;66.60;96181.13;10543251;28;20655;-30
2022/10/23 13:41:26;;;;;;;5.45;1.80;;;;;;;18.97;66.07;96169.16;10559883;28;20106;-30
2022/10/23 13:46:26;;;;;;;12.43;2.60;;;;;;;18.97;65.55;96169.16;10556863;28;20570;-29
2022/10/23 13:51:29;;;;;;;7.43;2.33;;;;;;;18.90;65.23;96157.38;10555952;28;20031;-30
2022/10/23 13:56:31;;;;;;;12.38;2.22;;;;;;;18.87;65.13;96165.03;10535705;28;20384;-30
2022/10/23 14:01:36;;;;;;;12.03;3.53;;;;;;;18.84;65.07;96165.06;10562952;28;20654;-32
2022/10/23 14:06:37;;;;;;;11.82;3.17;;;;;;;18.84;65.05;96162.53;10552386;28;20077;-30
2022/10/23 14:11:38;;;;;;;14.65;3.13;;;;;;;18.82;64.44;96166.81;10563115;28;20127;-30
2022/10/23 14:16:38;;;;;;;14.60;3.45;;;;;;;18.85;64.03;96174.38;10561758;28;20027;-30
2022/10/23 14:21:39;;;;;;;11.77;3.10;;;;;;;18.82;64.79;96169.34;10555561;28;20039;-31
2022/10/23 14:26:39;;;;;;;11.30;3.10;;;;;;;18.79;64.85;96164.28;10562179;28;20247;-30
2022/10/23 14:31:40;;;;;;;12.80;2.95;;;;;;;18.82;64.24;96164.25;10555199;28;20028;-30
2022/10/23 14:36:40;;;;;;;14.57;3.87;;;;;;;18.81;63.30;96157.47;10562824;28;20486;-30
2022/10/23 14:41:41;;;;;;;18.23;3.47;;;;;;;18.90;62.22;96149.78;10558966;28;20409;-30
2022/10/23 14:46:41;;;;;;;14.90;3.00;;;;;;;18.96;62.32;96149.72;10568763;28;20028;-30
2022/10/23 14:51:41;;;;;;;12.60;2.80;;;;;;;18.90;63.00;96155.69;10567654;28;20413;-32
2022/10/23 14:56:42;;;;;;;12.67;3.17;;;;;;;18.88;63.02;96154.88;10563194;28;20110;-30
2022/10/23 15:01:44;;;;;;;12.30;3.07;;;;;;;18.84;63.48;96155.75;10560980;28;20289;-31
2022/10/23 15:06:46;;;;;;;10.55;2.88;;;;;;;18.84;63.16;96170.16;10560407;28;20285;-31
2022/10/23 15:11:46;;;;;;;9.40;3.03;;;;;;;18.82;64.19;96169.34;10569759;28;20398;-30
2022/10/23 15:16:47;;;;;;;10.63;2.83;;;;;;;18.77;64.05;96160.91;10563360;28;20031;-30
2022/10/23 15:21:47;;;;;;;12.07;3.67;;;;;;;18.81;63.75;96154.94;10560009;28;20055;-30
2022/10/23 15:26:49;;;;;;;13.77;3.80;;;;;;;18.74;64.20;96125.47;10561285;28;20773;-30
2022/10/23 15:31:55;;;;;;;6.95;3.00;;;;;;;18.68;64.24;96108.59;10563772;28;20509;-30
2022/10/23 15:36:57;;;;;;;13.07;2.67;;;;;;;18.89;63.01;96117.66;10559458;28;20043;-31
2022/10/23 15:41:58;;;;;;;9.88;2.60;;;;;;;18.93;62.82;96112.53;10556061;28;20089;-30
2022/10/23 15:46:58;;;;;;;14.80;4.72;;;;;;;18.93;63.20;96129.47;10548340;28;20089;-31
2022/10/23 15:51:59;;;;;;;13.20;4.97;;;;;;;18.87;63.71;96130.38;10567345;28;20032;-30
2022/10/23 15:57:01;;;;;;;21.25;7.32;;;;;;;18.86;63.97;96097.41;10562769;28;20032;-30
2022/10/23 16:02:02;;;;;;;13.20;4.72;;;;;;;18.85;64.26;96095.75;10562075;28;20059;-30
2022/10/23 16:07:02;;;;;;;15.52;4.97;;;;;;;18.84;64.20;96096.59;10558159;28;20465;-30
2022/10/23 16:12:03;;;;;;;15.95;5.05;;;;;;;18.84;64.40;96077.13;10560275;28;20404;-30
2022/10/23 16:17:03;;;;;;;14.55;5.07;;;;;;;18.83;64.49;96092.41;10566973;28;20520;-30
2022/10/23 16:22:04;;;;;;;8.73;3.35;;;;;;;18.80;64.57;96094.94;10558866;28;20493;-30
2022/10/23 16:27:05;;;;;;;7.72;2.45;;;;;;;18.85;64.56;96090.66;10566558;28;20019;-30
2022/10/23 16:32:05;;;;;;;7.85;2.95;;;;;;;18.85;64.55;96090.66;10566168;28;20035;-30
2022/10/23 16:37:08;;;;;;;15.50;5.90;;;;;;;18.81;64.58;96105.09;10566769;28;20650;-30
2022/10/23 16:42:19;;;;;;;15.77;5.38;;;;;;;18.92;64.41;96115.13;10548288;28;20393;-30
2022/10/23 16:47:41;;;;;;;7.45;2.88;;;;;;;18.97;64.20;96143.78;10544104;27;20027;-30
2022/10/23 16:52:41;;;;;;;5.37;2.40;;;;;;;18.94;64.46;96149.75;10553202;28;20043;-30
2022/10/23 16:57:41;;;;;;;6.37;2.57;;;;;;;18.94;64.47;96151.44;10573687;27;20095;-30
2022/10/23 17:02:42;;;;;;;6.97;2.83;;;;;;;18.94;64.40;96159.03;10554253;28;20038;-31
2022/10/23 17:07:42;;;;;;;7.47;2.50;;;;;;;18.90;64.50;96157.38;10557594;28;20329;-30
2022/10/23 17:12:42;;;;;;;8.17;2.80;;;;;;;18.94;64.49;96181.88;10547410;28;20044;-30
2022/10/23 17:17:43;;;;;;;7.47;3.50;;;;;;;18.90;64.53;96203.03;10554581;28;20027;-29
2022/10/23 17:22:43;;;;;;;5.93;2.53;;;;;;;18.86;64.65;96206.47;10547905;28;20801;-31
2022/10/23 17:27:45;;;;;;;4.95;2.55;;;;;;;18.90;64.59;96241.09;10554796;28;20480;-30
2022/10/23 17:32:45;;;;;;;9.60;2.97;;;;;;;18.87;64.47;96253.81;10557473;28;20115;-30
2022/10/23 17:37:46;;;;;;;15.20;4.60;;;;;;;18.96;65.94;96263.88;10560800;28;20481;-29
2022/10/23 17:42:46;;;;;;;12.18;4.43;;;;;;;19.02;66.07;96264.66;10553254;28;20035;-31
2022/10/23 17:47:46;;;;;;;8.50;3.03;;;;;;;18.98;65.67;96273.16;10558453;28;20436;-30
2022/10/23 17:52:47;;;;;;;5.20;2.60;;;;;;;19.00;64.80;96235.09;10556495;28;20040;-31
2022/10/23 17:57:48;;;;;;;7.57;2.60;;;;;;;18.98;64.59;96292.59;10558748;28;20043;-30
2022/10/23 18:02:48;;;;;;;7.60;3.07;;;;;;;18.94;64.57;96326.47;10551459;28;20050;-30
2022/10/23 18:07:51;;;;;;;10.00;2.73;;;;;;;18.96;65.22;96345.03;10552271;28;20028;-30
2022/10/23 18:12:52;;;;;;;4.63;2.38;;;;;;;18.92;64.56;96320.56;10553613;28;20300;-30
2022/10/23 18:17:52;;;;;;;5.63;2.58;;;;;;;18.91;64.72;96301.97;10551243;28;20038;-31
2022/10/23 18:22:52;;;;;;;4.83;2.33;;;;;;;18.89;64.74;96328.19;10555100;28;20036;-30
2022/10/23 18:27:53;;;;;;;7.40;3.87;;;;;;;18.92;65.52;96353.53;10550357;27;20028;-34
2022/10/23 18:32:55;;;;;;;12.57;3.47;;;;;;;18.96;66.40;96355.19;10554309;27;20031;-31
2022/10/23 18:37:56;;;;;;;16.15;4.72;;;;;;;19.03;65.71;96321.31;10552923;27;20865;-31
2022/10/23 18:42:57;;;;;;;7.30;3.35;;;;;;;18.96;65.42;96309.53;10543623;28;20557;-30
2022/10/23 18:47:58;;;;;;;6.35;2.13;;;;;;;18.97;64.62;96296.84;10550965;28;20043;-30
2022/10/23 18:52:58;;;;;;;6.22;2.67;;;;;;;18.93;64.71;96299.41;10558229;28;20042;-30
2022/10/23 18:57:58;;;;;;;6.17;2.13;;;;;;;18.92;65.07;96310.44;10559980;28;20047;-30
2022/10/23 19:02:59;;;;;;;7.13;2.40;;;;;;;18.91;64.73;96299.44;10560782;28;20859;-31
2022/10/23 19:07:59;;;;;;;7.23;2.90;;;;;;;18.91;64.82;96306.22;10559317;28;20342;-30
2022/10/23 19:13:00;;;;;;;5.63;2.45;;;;;;;18.88;64.91;96298.59;10559007;28;20042;-30
2022/10/23 19:18:00;;;;;;;5.33;2.57;;;;;;;18.90;64.84;96304.50;10547326;28;20067;-30
2022/10/23 19:23:04;;;;;;;9.45;3.95;;;;;;;18.94;66.17;96296.03;10557986;28;20043;-30
2022/10/23 19:28:04;;;;;;;13.13;3.97;;;;;;;19.02;66.21;96309.50;10558495;28;20039;-31
2022/10/23 19:33:05;;;;;;;7.35;2.63;;;;;;;19.03;66.23;96313.69;10559148;28;20053;-30
2022/10/23 19:38:05;;;;;;;8.30;2.77;;;;;;;19.02;65.58;96319.63;10563631;28;20101;-31
2022/10/23 19:43:06;;;;;;;5.07;2.40;;;;;;;18.95;64.79;96312.94;10560442;28;20495;-30
2022/10/23 19:48:06;;;;;;;7.72;2.42;;;;;;;18.93;64.96;96315.47;10562128;28;20413;-31
2022/10/23 19:53:07;;;;;;;5.03;2.25;;;;;;;18.91;64.85;96318.91;10559649;28;20558;-31
2022/10/23 19:58:07;;;;;;;5.78;2.30;;;;;;;18.89;64.89;96308.75;10555922;28;20209;-30
2022/10/23 20:03:07;;;;;;;5.57;2.60;;;;;;;18.89;64.83;96323.13;10556401;28;20032;-31
2022/10/23 20:08:08;;;;;;;6.23;1.83;;;;;;;18.90;64.90;96329.88;10558160;28;20659;-30
2022/10/23 20:13:08;;;;;;;2.67;1.63;;;;;;;18.90;65.00;96337.47;10560021;28;20458;-31
2022/10/23 20:18:08;;;;;;;5.40;2.15;;;;;;;18.91;64.97;96362.00;10558020;28;20367;-30
2022/10/23 20:23:09;;;;;;;8.40;2.53;;;;;;;18.95;66.19;96364.53;10568163;28;20039;-30
2022/10/23 20:28:09;;;;;;;8.73;3.10;;;;;;;19.03;67.03;96377.13;10568137;28;20027;-29
2022/10/23 20:33:10;;;;;;;7.10;3.77;;;;;;;19.07;66.92;96359.34;10567026;28;20289;-30
2022/10/23 20:38:10;;;;;;;7.47;2.60;;;;;;;19.02;65.94;96360.22;10570420;28;20099;-30
2022/10/23 20:43:10;;;;;;;6.88;3.00;;;;;;;19.01;66.04;96381.38;10565372;28;20044;-31
2022/10/23 20:48:11;;;;;;;4.80;2.47;;;;;;;18.95;65.12;96382.28;10560465;28;20537;-31
2022/10/23 20:53:11;;;;;;;5.67;2.67;;;;;;;18.94;65.11;96392.41;10565908;28;20031;-31
2022/10/23 20:58:12;;;;;;;7.47;2.73;;;;;;;18.93;65.26;96404.25;10565614;28;20289;-29
2022/10/23 21:03:12;;;;;;;5.17;2.50;;;;;;;18.92;65.22;96396.66;10564259;28;20635;-30
2022/10/23 21:08:12;;;;;;;5.40;2.70;;;;;;;18.91;65.12;96393.28;10564320;28;20043;-30
2022/10/23 21:13:13;;;;;;;4.82;2.55;;;;;;;18.74;64.90;96343.53;10557434;28;20331;-29
2022/10/23 21:18:16;;;;;;;7.40;2.50;;;;;;;18.90;64.98;96360.31;10564087;28;20038;-31
2022/10/23 21:23:16;;;;;;;6.35;2.83;;;;;;;18.92;67.03;96348.47;10568437;28;20289;-31
2022/10/23 21:28:17;;;;;;;5.82;2.97;;;;;;;18.96;67.12;96339.97;10566765;28;20621;-30
2022/10/23 21:33:18;;;;;;;3.22;2.45;;;;;;;19.08;66.44;96355.13;10559782;28;20036;-31
2022/10/23 21:38:18;;;;;;;6.47;2.50;;;;;;;19.04;66.28;96343.28;10569252;28;20392;-30
2022/10/23 21:43:18;;;;;;;5.30;2.13;;;;;;;18.96;65.93;96334.91;10564678;28;20409;-30
2022/10/23 21:48:19;;;;;;;6.53;2.40;;;;;;;18.97;66.21;96356.88;10570718;28;20023;-30
2022/10/23 21:53:19;;;;;;;3.27;2.33;;;;;;;18.90;65.29;96345.09;10567106;28;20290;-31
2022/10/23 21:58:20;;;;;;;4.17;2.23;;;;;;;18.93;65.13;96355.22;10556989;28;20337;-30
2022/10/23 22:03:20;;;;;;;3.57;1.87;;;;;;;18.93;65.33;96360.31;10567492;28;20038;-30
2022/10/23 22:08:20;;;;;;;3.97;2.13;;;;;;;18.92;65.11;96358.63;10558286;28;20293;-30
2022/10/23 22:13:21;;;;;;;3.53;2.33;;;;;;;18.91;65.04;96356.94;10559737;28;20406;-31
2022/10/23 22:18:21;;;;;;;4.73;2.17;;;;;;;18.88;65.16;96351.88;10568543;28;20416;-30
2022/10/23 22:23:21;;;;;;;8.70;2.63;;;;;;;18.92;65.06;96359.44;10559525;28;20036;-31
2022/10/23 22:28:22;;;;;;;3.93;2.00;;;;;;;19.02;66.95;96362.75;10561454;28;20031;-31
2022/10/23 22:33:23;;;;;;;5.05;2.83;;;;;;;19.08;66.90;96347.50;10556825;28;20035;-30
2022/10/23 22:38:23;;;;;;;4.00;1.87;;;;;;;19.05;66.63;96322.13;10563112;28;20035;-30
2022/10/23 22:43:23;;;;;;;7.93;2.60;;;;;;;18.98;66.07;96320.50;10560786;28;20724;-30
2022/10/23 22:48:26;;;;;;;3.70;1.97;;;;;;;18.99;66.31;96325.56;10556726;28;20569;-30
2022/10/23 22:53:26;;;;;;;3.72;2.05;;;;;;;18.93;65.71;96323.06;10556499;28;20451;-30
2022/10/23 22:58:26;;;;;;;3.33;2.00;;;;;;;18.94;65.18;96326.47;10556252;28;20424;-30
2022/10/23 23:03:27;;;;;;;4.57;2.43;;;;;;;18.94;65.19;96336.63;10563724;28;20080;-31
2022/10/23 23:08:27;;;;;;;3.67;2.10;;;;;;;18.94;65.56;96339.16;10563008;28;20386;-29
2022/10/23 23:13:28;;;;;;;6.13;1.83;;;;;;;18.93;65.21;96345.09;10568916;28;20028;-31
2022/10/23 23:18:28;;;;;;;3.77;2.40;;;;;;;18.92;65.15;96348.47;10565987;28;20024;-30
2022/10/23 23:23:29;;;;;;;3.88;1.90;;;;;;;18.89;65.28;96346.78;10570894;28;20766;-31
2022/10/23 23:28:30;;;;;;;5.07;2.67;;;;;;;19.01;67.18;96328.09;10565976;28;20028;-30
2022/10/23 23:33:30;;;;;;;4.43;2.20;;;;;;;19.05;66.85;96327.22;10564365;28;20047;-30